createdAt,value
2023-01-15T00:01:29.016Z,11.37
2023-01-15T00:03:58.284Z,11.38
2023-01-15T00:06:28.296Z,11.39
2023-01-15T00:08:57.323Z,11.40
2023-01-15T00:11:25.632Z,11.39
2023-01-15T00:13:53.850Z,11.37
2023-01-15T00:16:24.337Z,11.35
2023-01-15T00:18:55.752Z,11.32
2023-01-15T00:21:26.375Z,11.30
2023-01-15T00:23:55.673Z,11.28
2023-01-15T00:26:29.091Z,11.28
2023-01-15T00:28:57.560Z,11.27
2023-01-15T00:31:25.968Z,11.28
2023-01-15T00:33:54.374Z,11.30
2023-01-15T00:36:23.273Z,11.33
2023-01-15T00:38:52.141Z,11.36
2023-01-15T00:41:20.969Z,11.37
2023-01-15T00:43:49.426Z,11.38
2023-01-15T00:46:19.301Z,11.37
2023-01-15T00:48:47.969Z,11.38
2023-01-15T00:51:16.014Z,11.39
2023-01-15T00:53:44.337Z,11.40
2023-01-15T00:56:12.741Z,11.40
2023-01-15T00:58:40.969Z,11.41
2023-01-15T01:01:09.109Z,11.41
2023-01-15T01:03:37.372Z,11.40
2023-01-15T01:06:06.458Z,11.37
2023-01-15T01:08:35.110Z,11.35
2023-01-15T01:11:06.435Z,11.31
2023-01-15T01:13:36.788Z,11.27
2023-01-15T01:16:21.220Z,11.25
2023-01-15T01:18:49.422Z,11.22
2023-01-15T01:21:18.426Z,11.20
2023-01-15T01:23:46.985Z,11.17
2023-01-15T01:26:15.723Z,11.14
2023-01-15T01:28:48.374Z,11.12
2023-01-15T01:31:17.701Z,11.10
2023-01-15T01:33:50.085Z,11.07
2023-01-15T01:36:19.516Z,11.07
2023-01-15T01:38:48.517Z,11.06
2023-01-15T01:41:18.921Z,11.04
2023-01-15T01:44:05.506Z,11.01
2023-01-15T01:46:36.415Z,10.96
2023-01-15T01:49:12.985Z,10.93
2023-01-15T01:51:51.087Z,10.89
2023-01-15T01:54:25.302Z,10.86
2023-01-15T01:56:54.218Z,10.83
2023-01-15T01:59:25.477Z,10.81
2023-01-15T02:01:54.870Z,10.79
2023-01-15T02:04:25.392Z,10.78
2023-01-15T02:06:54.765Z,10.78
2023-01-15T02:09:22.890Z,10.77
2023-01-15T02:11:53.114Z,10.78
2023-01-15T02:14:23.820Z,10.79
2023-01-15T02:17:17.334Z,10.79
2023-01-15T02:20:18.280Z,10.81
2023-01-15T02:22:58.295Z,10.82
2023-01-15T02:25:54.882Z,10.84
2023-01-15T02:28:27.546Z,10.85
2023-01-15T02:31:27.628Z,10.85
2023-01-15T02:34:00.336Z,10.88
2023-01-15T02:36:31.137Z,10.90
2023-01-15T02:39:03.429Z,10.95
2023-01-15T02:41:47.672Z,11.01
2023-01-15T02:44:20.403Z,11.08
2023-01-15T02:46:49.158Z,11.15
2023-01-15T02:49:20.807Z,11.21
2023-01-15T02:51:59.033Z,11.26
2023-01-15T02:54:34.292Z,11.33
2023-01-15T02:57:05.263Z,11.38
2023-01-15T02:59:43.961Z,11.44
2023-01-15T03:02:18.279Z,11.48
2023-01-15T03:05:11.991Z,11.51
2023-01-15T03:08:03.236Z,11.53
2023-01-15T03:10:39.179Z,11.54
2023-01-15T03:13:11.214Z,11.53
2023-01-15T03:16:12.756Z,11.53
2023-01-15T03:19:10.629Z,11.50
2023-01-15T03:21:59.793Z,11.52
2023-01-15T03:24:50.737Z,11.51
2023-01-15T03:27:20.677Z,11.51
2023-01-15T03:29:53.942Z,11.50
2023-01-15T03:32:22.940Z,11.50
2023-01-15T03:34:54.373Z,11.49
2023-01-15T03:37:24.991Z,11.47
2023-01-15T03:39:54.758Z,11.45
2023-01-15T03:42:54.868Z,11.42
2023-01-15T03:45:33.333Z,11.39
2023-01-15T03:48:31.429Z,11.38
2023-01-15T03:51:09.138Z,11.36
2023-01-15T03:53:41.633Z,11.36
2023-01-15T03:56:16.238Z,11.37
2023-01-15T03:58:56.600Z,11.39
2023-01-15T04:01:32.465Z,11.40
2023-01-15T04:04:02.835Z,11.42
2023-01-15T04:06:35.128Z,11.42
2023-01-15T04:09:06.538Z,11.43
2023-01-15T04:11:34.847Z,11.45
2023-01-15T04:14:03.011Z,11.49
2023-01-15T04:16:33.001Z,11.53
2023-01-15T04:19:01.602Z,11.60
2023-01-15T04:21:29.732Z,11.66
2023-01-15T04:23:58.249Z,11.77
2023-01-15T04:26:26.776Z,11.85
2023-01-15T04:28:55.019Z,11.94
2023-01-15T04:31:23.234Z,12.03
2023-01-15T04:33:51.535Z,12.10
2023-01-15T04:36:19.874Z,12.17
2023-01-15T04:38:48.051Z,12.24
2023-01-15T04:41:16.415Z,12.30
2023-01-15T04:43:44.560Z,12.37
2023-01-15T04:46:12.839Z,12.43
2023-01-15T04:48:41.922Z,12.49
2023-01-15T04:51:10.292Z,12.57
2023-01-15T04:53:38.624Z,12.66
2023-01-15T04:56:07.490Z,12.76
2023-01-15T04:58:36.390Z,12.86
2023-01-15T05:01:15.495Z,12.97
2023-01-15T05:03:44.227Z,13.05
2023-01-15T05:06:12.561Z,13.11
2023-01-15T05:08:40.728Z,13.17
2023-01-15T05:11:08.897Z,13.21
2023-01-15T05:13:37.169Z,13.23
2023-01-15T05:16:20.092Z,13.25
2023-01-15T05:18:48.562Z,13.28
2023-01-15T05:21:29.577Z,13.31
2023-01-15T05:23:58.988Z,13.32
2023-01-15T05:26:30.287Z,13.32
2023-01-15T05:29:00.060Z,13.33
2023-01-15T05:31:29.757Z,13.35
2023-01-15T05:33:58.579Z,13.39
2023-01-15T05:36:30.199Z,13.43
2023-01-15T05:38:59.983Z,13.47
2023-01-15T05:41:29.452Z,13.52
2023-01-15T05:44:01.068Z,13.54
2023-01-15T05:46:29.580Z,13.56
2023-01-15T05:49:06.402Z,13.57
2023-01-15T05:51:36.381Z,13.59
2023-01-15T05:54:06.393Z,13.63
2023-01-15T05:56:36.921Z,13.65
2023-01-15T05:59:07.032Z,13.69
2023-01-15T06:01:35.964Z,13.74
2023-01-15T06:04:06.669Z,13.77
2023-01-15T06:06:35.611Z,13.79
2023-01-15T06:09:04.979Z,13.78
2023-01-15T06:11:33.495Z,13.76
2023-01-15T06:14:01.857Z,13.77
2023-01-15T06:16:30.143Z,13.78
2023-01-15T06:19:03.787Z,13.80
2023-01-15T06:21:34.256Z,13.82
2023-01-15T06:24:02.769Z,13.84
2023-01-15T06:26:31.378Z,13.86
2023-01-15T06:28:59.806Z,13.88
2023-01-15T06:31:28.524Z,13.90
2023-01-15T06:33:57.246Z,13.92
2023-01-15T06:36:27.038Z,13.93
2023-01-15T06:38:56.153Z,13.92
2023-01-15T06:41:26.549Z,13.90
2023-01-15T06:43:54.876Z,13.87
2023-01-15T06:46:23.058Z,13.86
2023-01-15T06:48:51.791Z,13.85
2023-01-15T06:51:19.892Z,13.86
2023-01-15T06:53:48.269Z,13.87
2023-01-15T06:56:16.985Z,13.87
2023-01-15T06:58:45.370Z,13.87
2023-01-15T07:01:15.800Z,13.89
2023-01-15T07:03:44.366Z,13.91
2023-01-15T07:06:13.763Z,13.95
2023-01-15T07:08:41.935Z,13.98
2023-01-15T07:11:10.279Z,13.99
2023-01-15T07:13:38.462Z,13.99
2023-01-15T07:16:06.843Z,14.02
2023-01-15T07:18:35.185Z,14.05
2023-01-15T07:21:03.813Z,14.06
2023-01-15T07:23:32.031Z,14.07
2023-01-15T07:26:01.172Z,14.08
2023-01-15T07:28:29.807Z,14.10
2023-01-15T07:30:59.167Z,14.12
2023-01-15T07:33:27.912Z,14.17
2023-01-15T07:35:56.201Z,14.22
2023-01-15T07:38:24.516Z,14.29
2023-01-15T07:40:56.758Z,14.36
2023-01-15T07:43:24.919Z,14.46
2023-01-15T07:45:53.254Z,14.57
2023-01-15T07:48:21.768Z,14.67
2023-01-15T07:50:49.842Z,14.80
2023-01-15T07:53:17.964Z,14.97
2023-01-15T07:55:46.270Z,15.33
2023-01-15T07:58:14.387Z,16.00
2023-01-15T08:00:42.630Z,16.71
2023-01-15T08:03:11.615Z,17.57
2023-01-15T08:05:40.235Z,18.56
2023-01-15T08:08:18.181Z,19.47
2023-01-15T08:10:46.337Z,20.06
2023-01-15T08:13:14.628Z,20.45
2023-01-15T08:15:42.803Z,20.93
2023-01-15T08:18:11.034Z,21.63
2023-01-15T08:20:39.435Z,22.50
2023-01-15T08:23:07.666Z,23.43
2023-01-15T08:25:35.892Z,24.15
2023-01-15T08:28:04.204Z,24.46
2023-01-15T08:30:32.643Z,24.42
2023-01-15T08:33:02.063Z,24.51
2023-01-15T08:35:31.004Z,25.00
2023-01-15T08:37:59.552Z,25.85
2023-01-15T08:40:27.883Z,26.79
2023-01-15T08:42:56.737Z,27.61
2023-01-15T08:45:25.297Z,28.38
2023-01-15T08:47:56.612Z,29.26
2023-01-15T08:50:28.024Z,30.01
2023-01-15T08:52:56.819Z,30.68
2023-01-15T08:55:25.247Z,31.26
2023-01-15T08:57:53.419Z,31.78
2023-01-15T09:00:21.906Z,32.20
2023-01-15T09:02:50.777Z,32.65
2023-01-15T09:05:19.827Z,33.04
2023-01-15T09:07:48.047Z,33.50
2023-01-15T09:10:16.762Z,33.78
2023-01-15T09:12:45.266Z,33.96
2023-01-15T09:15:13.535Z,33.95
2023-01-15T09:17:41.831Z,33.92
2023-01-15T09:20:13.465Z,34.18
2023-01-15T09:22:42.703Z,34.50
2023-01-15T09:25:11.370Z,34.72
2023-01-15T09:27:39.501Z,34.90
2023-01-15T09:30:11.143Z,35.04
2023-01-15T09:32:39.245Z,35.03
2023-01-15T09:35:08.380Z,35.00
2023-01-15T09:37:36.686Z,35.05
2023-01-15T09:40:07.501Z,35.11
2023-01-15T09:43:05.201Z,35.08
2023-01-15T09:45:57.010Z,34.91
2023-01-15T09:49:04.470Z,34.83
2023-01-15T09:51:51.483Z,34.98
2023-01-15T09:54:47.892Z,35.29
2023-01-15T09:57:17.957Z,35.75
2023-01-15T09:59:49.792Z,35.74
2023-01-15T10:02:43.796Z,35.31
2023-01-15T10:05:22.071Z,34.84
2023-01-15T10:08:29.303Z,34.45
2023-01-15T10:11:23.149Z,34.42
2023-01-15T10:14:00.471Z,34.78
2023-01-15T10:16:32.398Z,35.14
2023-01-15T10:19:02.312Z,35.34
2023-01-15T10:21:47.703Z,35.31
2023-01-15T10:24:25.567Z,35.23
2023-01-15T10:26:56.797Z,35.26
2023-01-15T10:29:44.248Z,35.49
2023-01-15T10:32:36.886Z,35.46
2023-01-15T10:35:27.850Z,35.17
2023-01-15T10:37:58.980Z,34.92
2023-01-15T10:40:38.107Z,34.96
2023-01-15T10:43:32.397Z,35.08
2023-01-15T10:46:07.744Z,35.07
2023-01-15T10:48:46.268Z,35.00
2023-01-15T10:51:23.044Z,35.07
2023-01-15T10:53:57.326Z,35.09
2023-01-15T10:56:34.457Z,34.90
2023-01-15T10:59:16.132Z,34.80
2023-01-15T11:01:46.317Z,34.52
2023-01-15T11:04:14.718Z,34.35
2023-01-15T11:06:43.004Z,34.18
2023-01-15T11:09:20.826Z,33.92
2023-01-15T11:11:57.476Z,33.76
2023-01-15T11:14:43.745Z,33.74
2023-01-15T11:17:15.393Z,33.56
2023-01-15T11:19:44.095Z,33.37
2023-01-15T11:22:16.138Z,33.07
2023-01-15T11:24:54.876Z,32.91
2023-01-15T11:27:31.069Z,32.87
2023-01-15T11:30:01.904Z,32.79
2023-01-15T11:32:33.078Z,32.78
2023-01-15T11:35:16.748Z,32.92
2023-01-15T11:37:45.335Z,33.28
2023-01-15T11:40:19.675Z,33.72
2023-01-15T11:42:49.279Z,34.21
2023-01-15T11:45:20.390Z,34.74
2023-01-15T11:47:53.789Z,35.14
2023-01-15T11:50:22.001Z,35.40
2023-01-15T11:52:56.113Z,35.57
2023-01-15T11:55:27.108Z,35.74
2023-01-15T11:57:58.257Z,35.81
2023-01-15T12:00:30.637Z,35.96
2023-01-15T12:03:06.286Z,36.03
2023-01-15T12:05:38.113Z,35.51
2023-01-15T12:08:30.683Z,34.59
2023-01-15T12:11:25.957Z,33.64
2023-01-15T12:14:23.397Z,32.69
2023-01-15T12:17:10.195Z,31.86
2023-01-15T12:19:47.639Z,31.19
2023-01-15T12:22:42.457Z,30.60
2023-01-15T12:25:55.631Z,29.98
2023-01-15T12:28:31.777Z,29.48
2023-01-15T12:31:13.443Z,29.14
2023-01-15T12:33:59.936Z,28.90
2023-01-15T12:36:32.392Z,28.65
2023-01-15T12:39:07.903Z,28.31
2023-01-15T12:41:42.311Z,27.98
2023-01-15T12:44:11.160Z,27.73
2023-01-15T12:46:44.237Z,27.57
2023-01-15T12:49:40.877Z,27.39
2023-01-15T12:52:19.101Z,27.14
2023-01-15T12:55:06.352Z,26.96
2023-01-15T12:57:37.535Z,26.79
2023-01-15T13:00:25.919Z,26.67
2023-01-15T13:03:05.227Z,26.59
2023-01-15T13:05:41.846Z,26.57
2023-01-15T13:08:25.432Z,26.61
2023-01-15T13:10:54.206Z,26.71
2023-01-15T13:13:31.205Z,26.70
2023-01-15T13:16:15.008Z,26.63
2023-01-15T13:18:49.411Z,26.56
2023-01-15T13:21:18.782Z,26.40
2023-01-15T13:24:27.125Z,26.24
2023-01-15T13:27:07.093Z,26.23
2023-01-15T13:29:50.908Z,26.33
2023-01-15T13:32:25.208Z,26.43
2023-01-15T13:35:41.831Z,26.53
2023-01-15T13:38:18.656Z,26.58
2023-01-15T13:40:51.650Z,26.59
2023-01-15T13:43:34.824Z,26.61
2023-01-15T13:46:06.021Z,26.62
2023-01-15T13:48:40.914Z,26.55
2023-01-15T13:51:34.048Z,26.49
2023-01-15T13:54:02.333Z,26.45
2023-01-15T13:56:34.424Z,26.41
2023-01-15T13:59:05.745Z,26.39
2023-01-15T14:01:37.499Z,26.41
2023-01-15T14:04:13.366Z,26.39
2023-01-15T14:06:43.280Z,26.34
2023-01-15T14:09:19.235Z,26.30
2023-01-15T14:12:12.593Z,26.25
2023-01-15T14:14:55.705Z,26.16
2023-01-15T14:18:01.116Z,26.05
2023-01-15T14:20:49.047Z,25.88
2023-01-15T14:23:54.927Z,25.80
2023-01-15T14:26:50.565Z,25.76
2023-01-15T14:29:56.509Z,25.69
2023-01-15T14:33:05.676Z,25.58
2023-01-15T14:35:37.452Z,25.45
2023-01-15T14:38:08.642Z,25.34
2023-01-15T14:40:37.210Z,25.24
2023-01-15T14:43:17.462Z,25.16
2023-01-15T14:45:47.692Z,25.14
2023-01-15T14:48:34.821Z,25.12
2023-01-15T14:51:14.971Z,25.10
2023-01-15T14:53:59.898Z,25.06
2023-01-15T14:56:37.575Z,25.00
2023-01-15T14:59:26.297Z,24.91
2023-01-15T15:02:02.059Z,24.84
2023-01-15T15:04:43.617Z,24.81
2023-01-15T15:07:18.950Z,24.78
2023-01-15T15:09:53.399Z,24.77
2023-01-15T15:12:42.434Z,24.76
2023-01-15T15:15:25.950Z,24.74
2023-01-15T15:18:24.484Z,24.71
2023-01-15T15:20:58.665Z,24.72
2023-01-15T15:23:48.918Z,24.77
2023-01-15T15:26:25.077Z,24.77
2023-01-15T15:29:23.543Z,24.76
2023-01-15T15:31:54.326Z,24.76
2023-01-15T15:34:33.749Z,24.73
2023-01-15T15:37:06.054Z,24.68
2023-01-15T15:39:43.595Z,24.61
2023-01-15T15:42:36.738Z,24.51
2023-01-15T15:45:16.778Z,24.41
2023-01-15T15:47:45.084Z,24.31
2023-01-15T15:50:28.334Z,24.18
2023-01-15T15:52:57.603Z,24.00
2023-01-15T15:55:35.314Z,23.86
2023-01-15T15:58:04.266Z,23.72
2023-01-15T16:00:40.271Z,23.60
2023-01-15T16:03:23.838Z,23.49
2023-01-15T16:06:02.738Z,23.40
2023-01-15T16:08:33.803Z,23.30
2023-01-15T16:11:07.408Z,23.21
2023-01-15T16:13:40.637Z,23.10
2023-01-15T16:16:10.656Z,22.98
2023-01-15T16:18:42.863Z,22.86
2023-01-15T16:21:17.616Z,22.75
2023-01-15T16:23:56.942Z,22.65
2023-01-15T16:26:35.452Z,22.53
2023-01-15T16:29:22.480Z,22.40
2023-01-15T16:32:00.940Z,22.28
2023-01-15T16:34:32.815Z,22.18
2023-01-15T16:37:03.019Z,22.07
2023-01-15T16:39:45.793Z,21.93
2023-01-15T16:42:30.901Z,21.74
2023-01-15T16:45:03.811Z,21.54
2023-01-15T16:47:34.131Z,21.34
2023-01-15T16:50:41.079Z,21.14
2023-01-15T16:53:35.688Z,20.93
2023-01-15T16:56:05.226Z,20.74
2023-01-15T16:58:41.118Z,20.60
2023-01-15T17:01:39.075Z,20.46
2023-01-15T17:04:28.498Z,20.33
2023-01-15T17:07:22.319Z,20.20
2023-01-15T17:09:56.586Z,20.06
2023-01-15T17:12:34.569Z,19.95
2023-01-15T17:15:20.862Z,19.86
2023-01-15T17:17:51.380Z,19.77
2023-01-15T17:20:23.343Z,19.66
2023-01-15T17:22:51.596Z,19.56
2023-01-15T17:25:23.165Z,19.46
2023-01-15T17:27:51.903Z,19.37
2023-01-15T17:30:20.255Z,19.29
2023-01-15T17:32:48.968Z,19.20
2023-01-15T17:35:27.267Z,19.12
2023-01-15T17:37:55.498Z,19.03
2023-01-15T17:40:24.449Z,18.96
2023-01-15T17:42:54.210Z,18.89
2023-01-15T17:45:27.741Z,18.81
2023-01-15T17:48:05.720Z,18.72
2023-01-15T17:50:35.566Z,18.66
2023-01-15T17:53:05.204Z,18.59
2023-01-15T17:55:33.560Z,18.53
2023-01-15T17:58:01.948Z,18.48
2023-01-15T18:00:30.129Z,18.44
2023-01-15T18:02:58.605Z,18.39
2023-01-15T18:05:29.958Z,18.34
2023-01-15T18:08:00.755Z,18.30
2023-01-15T18:10:29.108Z,18.26
2023-01-15T18:12:57.576Z,18.22
2023-01-15T18:15:28.257Z,18.19
2023-01-15T18:17:56.396Z,18.15
2023-01-15T18:20:25.032Z,18.11
2023-01-15T18:23:07.131Z,18.08
2023-01-15T18:25:36.312Z,18.05
2023-01-15T18:28:04.708Z,18.01
2023-01-15T18:30:34.171Z,17.98
2023-01-15T18:33:03.085Z,17.93
2023-01-15T18:35:31.567Z,17.89
2023-01-15T18:37:59.800Z,17.85
2023-01-15T18:40:29.425Z,17.81
2023-01-15T18:42:58.413Z,17.77
2023-01-15T18:45:26.717Z,17.72
2023-01-15T18:47:55.427Z,17.68
2023-01-15T18:50:23.616Z,17.65
2023-01-15T18:52:52.088Z,17.61
2023-01-15T18:55:22.283Z,17.59
2023-01-15T18:58:06.361Z,17.57
2023-01-15T19:00:34.639Z,17.55
2023-01-15T19:03:02.798Z,17.54
2023-01-15T19:05:31.157Z,17.55
2023-01-15T19:07:59.507Z,17.55
2023-01-15T19:10:29.165Z,17.55
2023-01-15T19:12:57.346Z,17.56
2023-01-15T19:15:26.374Z,17.57
2023-01-15T19:17:54.639Z,17.57
2023-01-15T19:20:22.948Z,17.57
2023-01-15T19:22:51.724Z,17.57
2023-01-15T19:25:19.949Z,17.57
2023-01-15T19:27:48.136Z,17.59
2023-01-15T19:30:17.062Z,17.60
2023-01-15T19:32:45.759Z,17.60
2023-01-15T19:35:14.429Z,17.60
2023-01-15T19:37:43.015Z,17.59
2023-01-15T19:40:14.658Z,17.58
2023-01-15T19:42:43.260Z,17.57
2023-01-15T19:45:11.498Z,17.54
2023-01-15T19:47:41.414Z,17.50
2023-01-15T19:50:22.008Z,17.46
2023-01-15T19:52:52.743Z,17.40
2023-01-15T19:55:38.684Z,17.36
2023-01-15T19:58:10.799Z,17.32
2023-01-15T20:00:41.192Z,17.28
2023-01-15T20:03:12.026Z,17.25
2023-01-15T20:05:42.327Z,17.20
2023-01-15T20:08:11.572Z,17.17
2023-01-15T20:10:41.776Z,17.12
2023-01-15T20:13:15.675Z,17.08
2023-01-15T20:15:44.688Z,17.03
2023-01-15T20:18:14.135Z,17.00
2023-01-15T20:20:42.803Z,16.95
2023-01-15T20:23:11.406Z,16.90
2023-01-15T20:25:39.992Z,16.86
2023-01-15T20:28:08.636Z,16.81
2023-01-15T20:30:37.553Z,16.77
2023-01-15T20:33:06.579Z,16.73
2023-01-15T20:35:34.847Z,16.68
2023-01-15T20:38:03.363Z,16.65
2023-01-15T20:40:31.606Z,16.62
2023-01-15T20:43:00.857Z,16.59
2023-01-15T20:45:29.504Z,16.55
2023-01-15T20:47:57.870Z,16.51
2023-01-15T20:50:29.057Z,16.46
2023-01-15T20:52:57.313Z,16.42
2023-01-15T20:55:30.155Z,16.37
2023-01-15T20:57:59.736Z,16.34
2023-01-15T21:00:28.705Z,16.29
2023-01-15T21:02:57.062Z,16.25
2023-01-15T21:05:26.659Z,16.21
2023-01-15T21:07:54.927Z,16.15
2023-01-15T21:10:24.430Z,16.11
2023-01-15T21:12:53.342Z,16.05
2023-01-15T21:15:21.829Z,15.99
2023-01-15T21:17:50.580Z,15.93
2023-01-15T21:20:18.722Z,15.89
2023-01-15T21:22:46.902Z,15.86
2023-01-15T21:25:15.080Z,15.83
2023-01-15T21:27:43.255Z,15.81
2023-01-15T21:30:12.774Z,15.78
2023-01-15T21:32:41.271Z,15.74
2023-01-15T21:35:09.400Z,15.72
2023-01-15T21:37:37.671Z,15.70
2023-01-15T21:40:07.500Z,15.67
2023-01-15T21:42:36.253Z,15.64
2023-01-15T21:45:06.003Z,15.61
2023-01-15T21:47:34.514Z,15.59
2023-01-15T21:50:04.918Z,15.56
2023-01-15T21:52:33.122Z,15.55
2023-01-15T21:55:01.637Z,15.52
2023-01-15T21:57:30.696Z,15.49
2023-01-15T21:59:58.827Z,15.47
2023-01-15T22:02:27.451Z,15.46
2023-01-15T22:04:56.913Z,15.43
2023-01-15T22:07:25.137Z,15.42
2023-01-15T22:09:53.492Z,15.41
2023-01-15T22:12:21.632Z,15.41
2023-01-15T22:14:49.893Z,15.38
2023-01-15T22:17:18.086Z,15.36
2023-01-15T22:19:46.300Z,15.34
2023-01-15T22:22:14.399Z,15.33
2023-01-15T22:24:42.902Z,15.31
2023-01-15T22:27:16.234Z,15.29
2023-01-15T22:29:44.746Z,15.25
2023-01-15T22:32:14.470Z,15.22
2023-01-15T22:34:43.808Z,15.19
2023-01-15T22:37:14.958Z,15.15
2023-01-15T22:39:43.266Z,15.12
2023-01-15T22:42:12.818Z,15.09
2023-01-15T22:44:41.803Z,15.07
2023-01-15T22:47:11.371Z,15.06
2023-01-15T22:49:39.575Z,15.03
2023-01-15T22:52:07.945Z,15.01
2023-01-15T22:54:36.220Z,14.98
2023-01-15T22:57:04.873Z,14.94
2023-01-15T22:59:34.513Z,14.90
2023-01-15T23:02:02.661Z,14.84
2023-01-15T23:04:30.826Z,14.79
2023-01-15T23:06:59.330Z,14.75
2023-01-15T23:09:27.711Z,14.68
2023-01-15T23:11:55.980Z,14.63
2023-01-15T23:14:24.844Z,14.60
2023-01-15T23:16:53.044Z,14.55
2023-01-15T23:19:22.015Z,14.50
2023-01-15T23:21:50.242Z,14.45
2023-01-15T23:24:18.363Z,14.42
2023-01-15T23:26:46.512Z,14.39
2023-01-15T23:29:14.937Z,14.36
2023-01-15T23:31:43.533Z,14.34
2023-01-15T23:34:12.202Z,14.32
2023-01-15T23:36:40.526Z,14.31
2023-01-15T23:39:09.039Z,14.31
2023-01-15T23:41:37.748Z,14.32
2023-01-15T23:44:06.504Z,14.32
2023-01-15T23:46:34.936Z,14.32
2023-01-15T23:49:09.703Z,14.32
2023-01-15T23:51:38.682Z,14.33
2023-01-15T23:54:12.738Z,14.34
2023-01-15T23:56:41.572Z,14.36
2023-01-15T23:59:11.331Z,14.36
